College Station, Texas
Current Conditions -  °F | °C
As of 4:53 AM on Friday 28 Nov 2014 (Local Time) from KCLL Reporting Station
Clear Clear  
Wind Chill: 43°   Ceiling: Unl
Heat Index: 43°   Visibility: 10mi
Dew Point: 34°   Wind: 3mph
Humidity: 71%   Direction: 100°E
Pressure: 30.34"   Gusts: NA
Location:  30.62°N, 96.32°W
Report Text: KCLL 281053Z AUTO 10003KT 10SM CLR 06/01 A3034 RMK AO2 SLP272 T00610011
Loading
Personal Weather Stations






























Interactive Weather Map New forecast layout! Learn more

10-Day Weather Forecast

Advertisements
Track Severe Weather on mobile